sensor_id;sensor_type;location;lat;lon;timestamp;pressure;altitude;pressure_sealevel;temperature;humidity
22743;BME280;11538;48.884;8.696;2023-08-24T00:00:25;98925.38;;;21.92;85.35
22743;BME280;11538;48.884;8.696;2023-08-24T00:02:52;98918.91;;;21.81;85.95
22743;BME280;11538;48.884;8.696;2023-08-24T00:05:20;98906.09;;;21.69;86.54
22743;BME280;11538;48.884;8.696;2023-08-24T00:07:47;98900.53;;;21.65;87.10
22743;BME280;11538;48.884;8.696;2023-08-24T00:10:15;98898.19;;;21.67;86.89
22743;BME280;11538;48.884;8.696;2023-08-24T00:12:43;98897.06;;;21.72;86.63
22743;BME280;11538;48.884;8.696;2023-08-24T00:15:10;98890.97;;;21.59;87.37
22743;BME280;11538;48.884;8.696;2023-08-24T00:17:38;98884.63;;;21.58;87.70
22743;BME280;11538;48.884;8.696;2023-08-24T00:20:06;98894.69;;;21.70;86.44
22743;BME280;11538;48.884;8.696;2023-08-24T00:22:38;98887.25;;;21.74;85.92
22743;BME280;11538;48.884;8.696;2023-08-24T00:25:08;98892.13;;;21.85;85.12
22743;BME280;11538;48.884;8.696;2023-08-24T00:27:36;98890.44;;;21.76;85.46
22743;BME280;11538;48.884;8.696;2023-08-24T00:30:06;98887.28;;;21.78;85.67
22743;BME280;11538;48.884;8.696;2023-08-24T00:32:34;98888.75;;;21.68;86.08
22743;BME280;11538;48.884;8.696;2023-08-24T00:35:07;98878.56;;;21.72;85.96
22743;BME280;11538;48.884;8.696;2023-08-24T00:37:36;98875.28;;;21.63;86.37
22743;BME280;11538;48.884;8.696;2023-08-24T00:40:06;98870.38;;;21.53;86.70
22743;BME280;11538;48.884;8.696;2023-08-24T00:42:41;98859.31;;;21.53;86.94
22743;BME280;11538;48.884;8.696;2023-08-24T00:45:10;98865.09;;;21.71;85.87
22743;BME280;11538;48.884;8.696;2023-08-24T00:47:42;98866.28;;;21.70;85.33
22743;BME280;11538;48.884;8.696;2023-08-24T00:50:10;98860.31;;;21.64;85.74
22743;BME280;11538;48.884;8.696;2023-08-24T00:52:40;98848.31;;;21.56;86.24
22743;BME280;11538;48.884;8.696;2023-08-24T00:55:09;98850.31;;;21.56;86.33
22743;BME280;11538;48.884;8.696;2023-08-24T00:57:37;98853.81;;;21.53;86.70
22743;BME280;11538;48.884;8.696;2023-08-24T01:00:06;98838.44;;;21.55;86.70
22743;BME280;11538;48.884;8.696;2023-08-24T01:02:38;98838.56;;;21.62;86.04
22743;BME280;11538;48.884;8.696;2023-08-24T01:05:06;98834.09;;;21.54;86.12
22743;BME280;11538;48.884;8.696;2023-08-24T01:07:35;98841.09;;;21.48;86.35
22743;BME280;11538;48.884;8.696;2023-08-24T01:10:05;98843.94;;;21.52;86.24
22743;BME280;11538;48.884;8.696;2023-08-24T01:15:38;98844.47;;;21.61;85.70
22743;BME280;11538;48.884;8.696;2023-08-24T01:18:11;98841.09;;;21.48;85.98
22743;BME280;11538;48.884;8.696;2023-08-24T01:20:43;98845.88;;;21.51;85.85
22743;BME280;11538;48.884;8.696;2023-08-24T01:23:41;98842.19;;;21.40;86.29
22743;BME280;11538;48.884;8.696;2023-08-24T01:26:14;98850.41;;;21.36;86.70
22743;BME280;11538;48.884;8.696;2023-08-24T01:28:45;98846.50;;;21.37;86.50
22743;BME280;11538;48.884;8.696;2023-08-24T01:31:16;98855.00;;;21.28;87.03
22743;BME280;11538;48.884;8.696;2023-08-24T01:33:45;98853.91;;;21.33;86.91
22743;BME280;11538;48.884;8.696;2023-08-24T01:36:15;98856.81;;;21.44;85.96
22743;BME280;11538;48.884;8.696;2023-08-24T01:39:02;98854.88;;;21.44;85.55
22743;BME280;11538;48.884;8.696;2023-08-24T01:41:36;98867.91;;;21.47;85.32
22743;BME280;11538;48.884;8.696;2023-08-24T01:44:13;98875.03;;;21.48;85.20
22743;BME280;11538;48.884;8.696;2023-08-24T01:46:43;98873.44;;;21.47;85.73
22743;BME280;11538;48.884;8.696;2023-08-24T01:49:14;98875.88;;;21.53;85.16
22743;BME280;11538;48.884;8.696;2023-08-24T01:51:42;98878.03;;;21.40;85.91
22743;BME280;11538;48.884;8.696;2023-08-24T01:54:11;98880.75;;;21.36;86.14
22743;BME280;11538;48.884;8.696;2023-08-24T01:56:39;98870.72;;;21.24;87.00
22743;BME280;11538;48.884;8.696;2023-08-24T01:59:06;98878.63;;;21.26;87.24
22743;BME280;11538;48.884;8.696;2023-08-24T02:01:32;98879.38;;;21.23;87.61
22743;BME280;11538;48.884;8.696;2023-08-24T02:03:59;98875.81;;;21.22;87.52
22743;BME280;11538;48.884;8.696;2023-08-24T02:06:27;98872.06;;;21.11;88.24
22743;BME280;11538;48.884;8.696;2023-08-24T02:08:54;98870.28;;;20.99;88.99
22743;BME280;11538;48.884;8.696;2023-08-24T02:11:21;98859.53;;;20.90;89.90
22743;BME280;11538;48.884;8.696;2023-08-24T02:13:48;98870.13;;;20.88;90.22
22743;BME280;11538;48.884;8.696;2023-08-24T02:16:15;98864.53;;;20.84;90.62
22743;BME280;11538;48.884;8.696;2023-08-24T02:18:42;98858.16;;;20.80;90.70
22743;BME280;11538;48.884;8.696;2023-08-24T02:21:11;98850.31;;;20.82;90.83
22743;BME280;11538;48.884;8.696;2023-08-24T02:23:40;98847.50;;;20.79;90.81
22743;BME280;11538;48.884;8.696;2023-08-24T02:26:07;98849.53;;;20.82;90.69
22743;BME280;11538;48.884;8.696;2023-08-24T02:28:36;98856.69;;;20.86;90.41
22743;BME280;11538;48.884;8.696;2023-08-24T02:31:04;98855.09;;;20.85;90.62
22743;BME280;11538;48.884;8.696;2023-08-24T02:33:32;98859.75;;;20.81;90.69
22743;BME280;11538;48.884;8.696;2023-08-24T02:35:59;98859.13;;;20.68;91.57
22743;BME280;11538;48.884;8.696;2023-08-24T02:38:26;98852.91;;;20.75;91.48
22743;BME280;11538;48.884;8.696;2023-08-24T02:41:04;98851.75;;;20.76;91.37
22743;BME280;11538;48.884;8.696;2023-08-24T02:43:32;98837.84;;;20.69;91.51
22743;BME280;11538;48.884;8.696;2023-08-24T02:46:05;98836.00;;;20.53;92.73
22743;BME280;11538;48.884;8.696;2023-08-24T02:48:33;98837.25;;;20.56;92.71
22743;BME280;11538;48.884;8.696;2023-08-24T02:51:02;98831.47;;;20.65;92.03
22743;BME280;11538;48.884;8.696;2023-08-24T02:53:30;98834.44;;;20.75;91.33
22743;BME280;11538;48.884;8.696;2023-08-24T02:55:57;98838.97;;;20.87;90.52
22743;BME280;11538;48.884;8.696;2023-08-24T02:58:24;98828.78;;;20.88;90.38
22743;BME280;11538;48.884;8.696;2023-08-24T03:00:51;98832.41;;;20.96;89.97
22743;BME280;11538;48.884;8.696;2023-08-24T03:03:18;98832.00;;;20.94;89.81
22743;BME280;11538;48.884;8.696;2023-08-24T03:06:01;98827.75;;;21.00;89.24
22743;BME280;11538;48.884;8.696;2023-08-24T03:08:30;98816.72;;;21.00;88.93
22743;BME280;11538;48.884;8.696;2023-08-24T03:10:59;98822.81;;;20.86;90.05
22743;BME280;11538;48.884;8.696;2023-08-24T03:13:28;98816.47;;;20.82;90.18
22743;BME280;11538;48.884;8.696;2023-08-24T03:15:55;98814.56;;;20.86;90.12
22743;BME280;11538;48.884;8.696;2023-08-24T03:18:23;98801.56;;;20.86;89.91
22743;BME280;11538;48.884;8.696;2023-08-24T03:20:50;98799.72;;;20.94;89.37
22743;BME280;11538;48.884;8.696;2023-08-24T03:23:16;98804.00;;;20.92;89.48
22743;BME280;11538;48.884;8.696;2023-08-24T03:25:44;98803.66;;;20.93;89.04
22743;BME280;11538;48.884;8.696;2023-08-24T03:28:11;98788.16;;;20.85;89.40
22743;BME280;11538;48.884;8.696;2023-08-24T03:30:48;98779.56;;;20.90;89.58
22743;BME280;11538;48.884;8.696;2023-08-24T03:33:15;98778.03;;;20.93;88.80
22743;BME280;11538;48.884;8.696;2023-08-24T03:35:43;98775.16;;;20.85;89.38
22743;BME280;11538;48.884;8.696;2023-08-24T03:38:10;98778.34;;;20.87;89.46
22743;BME280;11538;48.884;8.696;2023-08-24T03:40:37;98776.00;;;20.89;89.03
22743;BME280;11538;48.884;8.696;2023-08-24T03:43:04;98774.16;;;20.74;90.13
22743;BME280;11538;48.884;8.696;2023-08-24T03:45:31;98768.53;;;20.67;90.69
22743;BME280;11538;48.884;8.696;2023-08-24T03:47:58;98761.06;;;20.67;90.85
22743;BME280;11538;48.884;8.696;2023-08-24T03:50:25;98758.78;;;20.73;90.75
22743;BME280;11538;48.884;8.696;2023-08-24T03:52:54;98746.16;;;20.72;90.43
22743;BME280;11538;48.884;8.696;2023-08-24T03:55:22;98757.34;;;20.79;90.16
22743;BME280;11538;48.884;8.696;2023-08-24T03:57:49;98757.56;;;20.94;89.17
22743;BME280;11538;48.884;8.696;2023-08-24T04:00:17;98752.56;;;21.03;88.62
22743;BME280;11538;48.884;8.696;2023-08-24T04:02:45;98754.59;;;21.06;88.39
22743;BME280;11538;48.884;8.696;2023-08-24T04:05:12;98749.06;;;21.06;88.07
22743;BME280;11538;48.884;8.696;2023-08-24T04:07:39;98748.28;;;21.06;87.82
22743;BME280;11538;48.884;8.696;2023-08-24T04:10:08;98752.03;;;20.94;88.06
22743;BME280;11538;48.884;8.696;2023-08-24T04:12:36;98752.34;;;20.88;88.43
22743;BME280;11538;48.884;8.696;2023-08-24T04:15:04;98757.75;;;20.81;89.24
22743;BME280;11538;48.884;8.696;2023-08-24T04:17:31;98749.50;;;20.81;89.16
22743;BME280;11538;48.884;8.696;2023-08-24T04:19:59;98746.59;;;20.74;89.44
22743;BME280;11538;48.884;8.696;2023-08-24T04:22:26;98746.88;;;20.65;90.27
22743;BME280;11538;48.884;8.696;2023-08-24T04:24:53;98742.25;;;20.73;89.27
22743;BME280;11538;48.884;8.696;2023-08-24T04:27:20;98743.56;;;20.79;88.19
22743;BME280;11538;48.884;8.696;2023-08-24T04:29:48;98738.47;;;20.81;87.79
22743;BME280;11538;48.884;8.696;2023-08-24T04:32:15;98740.06;;;20.82;88.29
22743;BME280;11538;48.884;8.696;2023-08-24T04:34:42;98737.91;;;20.72;89.16
22743;BME280;11538;48.884;8.696;2023-08-24T04:37:09;98736.63;;;20.66;89.57
22743;BME280;11538;48.884;8.696;2023-08-24T04:39:37;98738.16;;;20.63;89.92
22743;BME280;11538;48.884;8.696;2023-08-24T04:42:04;98735.41;;;20.63;90.00
22743;BME280;11538;48.884;8.696;2023-08-24T04:44:32;98741.72;;;20.64;89.84
22743;BME280;11538;48.884;8.696;2023-08-24T04:47:00;98742.44;;;20.60;89.80
22743;BME280;11538;48.884;8.696;2023-08-24T04:49:26;98744.00;;;20.58;89.34
22743;BME280;11538;48.884;8.696;2023-08-24T04:51:55;98742.22;;;20.69;89.06
22743;BME280;11538;48.884;8.696;2023-08-24T04:54:22;98734.53;;;20.82;88.41
22743;BME280;11538;48.884;8.696;2023-08-24T04:56:49;98739.84;;;20.95;87.95
22743;BME280;11538;48.884;8.696;2023-08-24T04:59:16;98735.56;;;20.97;88.11
22743;BME280;11538;48.884;8.696;2023-08-24T05:01:42;98730.06;;;20.97;88.12
22743;BME280;11538;48.884;8.696;2023-08-24T05:04:10;98727.00;;;21.06;88.05
22743;BME280;11538;48.884;8.696;2023-08-24T05:06:37;98722.75;;;21.12;86.49
22743;BME280;11538;48.884;8.696;2023-08-24T05:09:04;98719.66;;;21.14;86.72
22743;BME280;11538;48.884;8.696;2023-08-24T05:11:31;98717.34;;;21.19;86.50
22743;BME280;11538;48.884;8.696;2023-08-24T05:13:58;98710.63;;;21.17;86.53
22743;BME280;11538;48.884;8.696;2023-08-24T05:16:25;98707.53;;;21.22;85.66
22743;BME280;11538;48.884;8.696;2023-08-24T05:18:52;98702.03;;;21.22;85.22
22743;BME280;11538;48.884;8.696;2023-08-24T05:21:19;98703.56;;;21.19;85.07
22743;BME280;11538;48.884;8.696;2023-08-24T05:23:45;98697.31;;;21.23;84.57
22743;BME280;11538;48.884;8.696;2023-08-24T05:26:12;98700.88;;;21.23;84.47
22743;BME280;11538;48.884;8.696;2023-08-24T05:28:39;98695.28;;;21.19;84.83
22743;BME280;11538;48.884;8.696;2023-08-24T05:31:06;98695.69;;;21.18;84.65
22743;BME280;11538;48.884;8.696;2023-08-24T05:33:33;98698.19;;;21.30;84.34
22743;BME280;11538;48.884;8.696;2023-08-24T05:36:01;98700.88;;;21.23;84.57
22743;BME280;11538;48.884;8.696;2023-08-24T05:38:28;98699.66;;;21.21;84.69
22743;BME280;11538;48.884;8.696;2023-08-24T05:40:55;98694.69;;;21.33;84.25
22743;BME280;11538;48.884;8.696;2023-08-24T05:43:22;98706.28;;;21.46;83.87
22743;BME280;11538;48.884;8.696;2023-08-24T05:45:49;98706.28;;;21.46;83.34
22743;BME280;11538;48.884;8.696;2023-08-24T05:48:16;98706.28;;;21.46;83.31
22743;BME280;11538;48.884;8.696;2023-08-24T05:50:46;98708.38;;;21.57;82.87
22743;BME280;11538;48.884;8.696;2023-08-24T05:53:14;98701.13;;;21.75;82.60
22743;BME280;11538;48.884;8.696;2023-08-24T05:55:41;98712.25;;;21.83;82.72
22743;BME280;11538;48.884;8.696;2023-08-24T05:58:08;98710.31;;;21.87;81.69
22743;BME280;11538;48.884;8.696;2023-08-24T06:00:35;98718.69;;;21.94;82.00
22743;BME280;11538;48.884;8.696;2023-08-24T06:03:03;98720.28;;;21.95;82.18
22743;BME280;11538;48.884;8.696;2023-08-24T06:05:32;98726.63;;;21.99;81.78
22743;BME280;11538;48.884;8.696;2023-08-24T06:07:59;98727.47;;;22.03;81.81
22743;BME280;11538;48.884;8.696;2023-08-24T06:10:28;98736.97;;;22.06;81.60
22743;BME280;11538;48.884;8.696;2023-08-24T06:12:58;98740.16;;;22.12;81.30
22743;BME280;11538;48.884;8.696;2023-08-24T06:15:28;98758.00;;;22.18;80.84
22743;BME280;11538;48.884;8.696;2023-08-24T06:17:54;98775.41;;;22.22;80.90
22743;BME280;11538;48.884;8.696;2023-08-24T06:20:22;98785.31;;;22.27;81.00
22743;BME280;11538;48.884;8.696;2023-08-24T06:22:50;98800.00;;;22.34;80.94
22743;BME280;11538;48.884;8.696;2023-08-24T06:25:16;98818.56;;;22.38;81.14
22743;BME280;11538;48.884;8.696;2023-08-24T06:27:44;98824.94;;;22.42;81.33
22743;BME280;11538;48.884;8.696;2023-08-24T06:30:11;98821.38;;;22.41;81.02
22743;BME280;11538;48.884;8.696;2023-08-24T06:32:39;98821.34;;;22.38;80.99
22743;BME280;11538;48.884;8.696;2023-08-24T06:35:06;98816.06;;;22.25;82.23
22743;BME280;11538;48.884;8.696;2023-08-24T06:37:33;98799.00;;;22.16;83.47
22743;BME280;11538;48.884;8.696;2023-08-24T06:40:00;98783.59;;;22.15;83.44
22743;BME280;11538;48.884;8.696;2023-08-24T06:42:27;98758.00;;;22.18;83.50
22743;BME280;11538;48.884;8.696;2023-08-24T06:44:54;98740.28;;;22.23;83.26
22743;BME280;11538;48.884;8.696;2023-08-24T06:47:21;98733.66;;;22.31;83.53
22743;BME280;11538;48.884;8.696;2023-08-24T06:49:48;98735.75;;;22.45;82.96
22743;BME280;11538;48.884;8.696;2023-08-24T06:52:15;98757.69;;;22.64;82.06
22743;BME280;11538;48.884;8.696;2023-08-24T06:54:42;98768.03;;;22.78;81.37
22743;BME280;11538;48.884;8.696;2023-08-24T06:57:10;98772.84;;;22.85;80.31
22743;BME280;11538;48.884;8.696;2023-08-24T06:59:36;98767.31;;;22.85;80.29
22743;BME280;11538;48.884;8.696;2023-08-24T07:02:03;98768.09;;;22.86;80.40
22743;BME280;11538;48.884;8.696;2023-08-24T07:04:31;98776.91;;;22.99;79.99
22743;BME280;11538;48.884;8.696;2023-08-24T07:06:58;98777.81;;;23.17;78.84
22743;BME280;11538;48.884;8.696;2023-08-24T07:09:25;98774.44;;;23.39;77.86
22743;BME280;11538;48.884;8.696;2023-08-24T07:11:52;98772.06;;;23.44;77.64
22743;BME280;11538;48.884;8.696;2023-08-24T07:14:21;98776.81;;;23.47;77.42
22743;BME280;11538;48.884;8.696;2023-08-24T07:16:48;98773.28;;;23.50;77.17
22743;BME280;11538;48.884;8.696;2023-08-24T07:19:15;98763.34;;;23.42;76.97
22743;BME280;11538;48.884;8.696;2023-08-24T07:21:43;98769.75;;;23.50;76.56
22743;BME280;11538;48.884;8.696;2023-08-24T07:24:10;98763.84;;;23.59;76.53
22743;BME280;11538;48.884;8.696;2023-08-24T07:26:37;98768.19;;;23.60;76.63
22743;BME280;11538;48.884;8.696;2023-08-24T07:29:04;98753.19;;;23.64;76.86
22743;BME280;11538;48.884;8.696;2023-08-24T07:31:32;98747.28;;;23.70;76.98
22743;BME280;11538;48.884;8.696;2023-08-24T07:34:00;98748.47;;;23.79;76.58
22743;BME280;11538;48.884;8.696;2023-08-24T07:36:27;98752.91;;;23.95;76.40
22743;BME280;11538;48.884;8.696;2023-08-24T07:38:54;98754.94;;;24.05;75.39
22743;BME280;11538;48.884;8.696;2023-08-24T07:41:21;98753.38;;;24.12;74.90
22743;BME280;11538;48.884;8.696;2023-08-24T07:43:48;98748.66;;;24.23;74.60
22743;BME280;11538;48.884;8.696;2023-08-24T07:46:15;98753.81;;;24.35;73.74
22743;BME280;11538;48.884;8.696;2023-08-24T07:48:42;98761.75;;;24.48;73.39
22743;BME280;11538;48.884;8.696;2023-08-24T07:51:09;98757.00;;;24.66;72.52
22743;BME280;11538;48.884;8.696;2023-08-24T07:53:36;98760.59;;;24.85;71.93
22743;BME280;11538;48.884;8.696;2023-08-24T07:56:03;98758.59;;;24.96;70.70
22743;BME280;11538;48.884;8.696;2023-08-24T07:58:30;98760.16;;;25.12;69.99
22743;BME280;11538;48.884;8.696;2023-08-24T08:01:02;98756.19;;;25.28;69.36
22743;BME280;11538;48.884;8.696;2023-08-24T08:03:28;98749.38;;;25.39;68.88
22743;BME280;11538;48.884;8.696;2023-08-24T08:05:57;98753.34;;;25.57;67.67
22743;BME280;11538;48.884;8.696;2023-08-24T08:08:25;98747.72;;;25.67;67.14
22743;BME280;11538;48.884;8.696;2023-08-24T08:11:00;98751.66;;;25.77;66.87
22743;BME280;11538;48.884;8.696;2023-08-24T08:13:28;98757.16;;;25.92;66.53
22743;BME280;11538;48.884;8.696;2023-08-24T08:16:03;98762.63;;;26.06;65.85
22743;BME280;11538;48.884;8.696;2023-08-24T08:18:35;98764.91;;;26.26;64.96
22743;BME280;11538;48.884;8.696;2023-08-24T08:21:15;98767.16;;;26.49;63.98
22743;BME280;11538;48.884;8.696;2023-08-24T08:23:48;98763.03;;;26.68;63.20
22743;BME280;11538;48.884;8.696;2023-08-24T08:26:16;98753.44;;;26.77;62.82
22743;BME280;11538;48.884;8.696;2023-08-24T08:28:43;98754.47;;;26.94;63.02
22743;BME280;11538;48.884;8.696;2023-08-24T08:31:11;98756.31;;;27.11;62.35
22743;BME280;11538;48.884;8.696;2023-08-24T08:33:39;98760.09;;;27.32;61.95
22743;BME280;11538;48.884;8.696;2023-08-24T08:36:05;98759.56;;;27.44;61.45
22743;BME280;11538;48.884;8.696;2023-08-24T08:38:32;98770.13;;;27.61;62.10
22743;BME280;11538;48.884;8.696;2023-08-24T08:41:04;98771.22;;;27.70;62.21
22743;BME280;11538;48.884;8.696;2023-08-24T08:43:32;98765.91;;;27.80;61.49
22743;BME280;11538;48.884;8.696;2023-08-24T08:46:00;98760.91;;;27.98;60.83
22743;BME280;11538;48.884;8.696;2023-08-24T08:48:30;98749.53;;;28.16;58.66
22743;BME280;11538;48.884;8.696;2023-08-24T08:50:58;98747.00;;;28.26;59.61
22743;BME280;11538;48.884;8.696;2023-08-24T08:53:26;98739.25;;;28.37;59.26
22743;BME280;11538;48.884;8.696;2023-08-24T08:55:55;98740.66;;;28.49;60.54
22743;BME280;11538;48.884;8.696;2023-08-24T08:58:27;98739.28;;;28.61;58.83
22743;BME280;11538;48.884;8.696;2023-08-24T09:00:54;98723.13;;;28.72;57.74
22743;BME280;11538;48.884;8.696;2023-08-24T09:03:22;98717.41;;;28.83;57.00
22743;BME280;11538;48.884;8.696;2023-08-24T09:05:49;98715.50;;;29.00;57.63
22743;BME280;11538;48.884;8.696;2023-08-24T09:08:17;98712.81;;;29.17;57.08
22743;BME280;11538;48.884;8.696;2023-08-24T09:10:45;98699.84;;;29.27;56.92
22743;BME280;11538;48.884;8.696;2023-08-24T09:13:21;98694.56;;;29.53;55.71
22743;BME280;11538;48.884;8.696;2023-08-24T09:15:52;98685.78;;;29.71;57.77
22743;BME280;11538;48.884;8.696;2023-08-24T09:18:21;98677.53;;;29.84;55.02
22743;BME280;11538;48.884;8.696;2023-08-24T09:20:49;98686.09;;;29.93;54.42
22743;BME280;11538;48.884;8.696;2023-08-24T09:23:19;98683.66;;;29.95;53.97
22743;BME280;11538;48.884;8.696;2023-08-24T09:25:47;98681.34;;;30.10;55.18
22743;BME280;11538;48.884;8.696;2023-08-24T09:28:22;98673.81;;;30.24;53.29
22743;BME280;11538;48.884;8.696;2023-08-24T09:30:53;98677.41;;;30.41;53.46
22743;BME280;11538;48.884;8.696;2023-08-24T09:33:22;98668.31;;;30.53;52.82
22743;BME280;11538;48.884;8.696;2023-08-24T09:35:54;98644.97;;;30.60;53.00
22743;BME280;11538;48.884;8.696;2023-08-24T09:38:23;98639.38;;;30.89;51.96
22743;BME280;11538;48.884;8.696;2023-08-24T09:40:53;98632.31;;;30.85;52.73
22743;BME280;11538;48.884;8.696;2023-08-24T09:43:22;98625.16;;;30.97;52.72
22743;BME280;11538;48.884;8.696;2023-08-24T09:45:52;98625.47;;;31.15;52.15
22743;BME280;11538;48.884;8.696;2023-08-24T09:48:20;98606.22;;;31.30;50.98
22743;BME280;11538;48.884;8.696;2023-08-24T09:50:50;98605.13;;;31.41;51.05
22743;BME280;11538;48.884;8.696;2023-08-24T09:53:22;98601.88;;;31.42;49.79
22743;BME280;11538;48.884;8.696;2023-08-24T09:56:01;98593.56;;;31.64;52.05
22743;BME280;11538;48.884;8.696;2023-08-24T09:58:29;98590.00;;;31.77;51.45
22743;BME280;11538;48.884;8.696;2023-08-24T10:00:56;98581.50;;;31.93;51.10
22743;BME280;11538;48.884;8.696;2023-08-24T10:03:27;98578.56;;;31.97;49.38
22743;BME280;11538;48.884;8.696;2023-08-24T10:05:57;98567.97;;;32.14;49.67
22743;BME280;11538;48.884;8.696;2023-08-24T10:08:43;98570.41;;;32.38;50.94
22743;BME280;11538;48.884;8.696;2023-08-24T10:11:14;98574.19;;;32.44;52.73
22743;BME280;11538;48.884;8.696;2023-08-24T10:14:05;98559.38;;;32.66;50.71
22743;BME280;11538;48.884;8.696;2023-08-24T10:16:35;98563.78;;;32.89;49.56
22743;BME280;11538;48.884;8.696;2023-08-24T10:19:04;98566.06;;;33.04;48.82
22743;BME280;11538;48.884;8.696;2023-08-24T10:21:31;98555.31;;;33.11;48.91
22743;BME280;11538;48.884;8.696;2023-08-24T10:23:59;98550.72;;;33.27;46.44
22743;BME280;11538;48.884;8.696;2023-08-24T10:26:29;98545.44;;;33.29;47.82
22743;BME280;11538;48.884;8.696;2023-08-24T10:28:58;98536.47;;;33.53;46.54
22743;BME280;11538;48.884;8.696;2023-08-24T10:31:26;98538.19;;;33.60;46.30
22743;BME280;11538;48.884;8.696;2023-08-24T10:33:54;98533.41;;;33.69;48.24
22743;BME280;11538;48.884;8.696;2023-08-24T10:36:23;98532.84;;;33.93;48.31
22743;BME280;11538;48.884;8.696;2023-08-24T10:38:50;98529.44;;;34.17;49.17
22743;BME280;11538;48.884;8.696;2023-08-24T10:41:17;98518.16;;;33.98;47.13
22743;BME280;11538;48.884;8.696;2023-08-24T10:43:50;98515.97;;;33.93;45.41
22743;BME280;11538;48.884;8.696;2023-08-24T10:46:17;98514.72;;;34.04;45.02
22743;BME280;11538;48.884;8.696;2023-08-24T10:54:00;98505.84;;;34.24;44.19
22743;BME280;11538;48.884;8.696;2023-08-24T10:56:37;98498.94;;;34.53;42.96
22743;BME280;11538;48.884;8.696;2023-08-24T10:59:16;98494.84;;;34.63;46.55
22743;BME280;11538;48.884;8.696;2023-08-24T11:01:55;98496.09;;;34.62;42.25
22743;BME280;11538;48.884;8.696;2023-08-24T11:04:23;98486.56;;;34.41;42.72
22743;BME280;11538;48.884;8.696;2023-08-24T11:09:23;98487.66;;;34.62;43.84
22743;BME280;11538;48.884;8.696;2023-08-24T11:12:01;98483.38;;;34.85;41.20
22743;BME280;11538;48.884;8.696;2023-08-24T11:14:31;98490.16;;;34.69;43.55
22743;BME280;11538;48.884;8.696;2023-08-24T11:17:19;98473.97;;;34.98;41.81
22743;BME280;11538;48.884;8.696;2023-08-24T11:19:54;98466.13;;;35.36;40.33
22743;BME280;11538;48.884;8.696;2023-08-24T11:22:21;98468.50;;;35.28;40.36
22743;BME280;11538;48.884;8.696;2023-08-24T11:24:49;98467.13;;;35.57;40.09
22743;BME280;11538;48.884;8.696;2023-08-24T11:27:16;98474.41;;;36.12;39.79
22743;BME280;11538;48.884;8.696;2023-08-24T11:29:43;98453.75;;;36.46;38.96
22743;BME280;11538;48.884;8.696;2023-08-24T11:32:10;98462.03;;;36.64;37.30
22743;BME280;11538;48.884;8.696;2023-08-24T11:34:38;98455.09;;;36.95;37.39
22743;BME280;11538;48.884;8.696;2023-08-24T11:37:05;98451.34;;;37.55;36.22
22743;BME280;11538;48.884;8.696;2023-08-24T11:39:32;98457.50;;;37.74;35.42
22743;BME280;11538;48.884;8.696;2023-08-24T11:42:05;98452.75;;;37.86;35.13
22743;BME280;11538;48.884;8.696;2023-08-24T11:44:49;98444.81;;;38.11;35.24
22743;BME280;11538;48.884;8.696;2023-08-24T11:47:19;98452.06;;;38.38;34.23
22743;BME280;11538;48.884;8.696;2023-08-24T11:49:46;98451.19;;;38.06;35.00
22743;BME280;11538;48.884;8.696;2023-08-24T11:52:14;98446.75;;;38.46;34.00
22743;BME280;11538;48.884;8.696;2023-08-24T11:54:43;98441.31;;;38.42;33.76
22743;BME280;11538;48.884;8.696;2023-08-24T11:57:10;98435.13;;;39.08;33.63
22743;BME280;11538;48.884;8.696;2023-08-24T11:59:39;98434.34;;;39.45;32.71
22743;BME280;11538;48.884;8.696;2023-08-24T12:02:09;98428.69;;;39.51;32.51
22743;BME280;11538;48.884;8.696;2023-08-24T12:04:41;98427.88;;;39.01;33.38
22743;BME280;11538;48.884;8.696;2023-08-24T12:07:13;98421.56;;;38.86;33.59
22743;BME280;11538;48.884;8.696;2023-08-24T12:09:41;98418.06;;;38.38;34.31
22743;BME280;11538;48.884;8.696;2023-08-24T12:12:17;98419.63;;;38.13;34.36
22743;BME280;11538;48.884;8.696;2023-08-24T12:14:47;98402.19;;;38.20;34.67
22743;BME280;11538;48.884;8.696;2023-08-24T12:17:16;98390.31;;;38.42;34.43
22743;BME280;11538;48.884;8.696;2023-08-24T12:19:59;98377.88;;;38.66;34.36
22743;BME280;11538;48.884;8.696;2023-08-24T12:22:29;98374.41;;;38.51;35.11
22743;BME280;11538;48.884;8.696;2023-08-24T12:24:56;98370.09;;;38.55;34.31
22743;BME280;11538;48.884;8.696;2023-08-24T12:27:25;98365.69;;;38.54;34.08
22743;BME280;11538;48.884;8.696;2023-08-24T12:29:53;98367.25;;;38.55;34.14
22743;BME280;11538;48.884;8.696;2023-08-24T12:32:21;98364.72;;;39.01;33.50
22743;BME280;11538;48.884;8.696;2023-08-24T12:34:52;98362.97;;;39.75;32.07
22743;BME280;11538;48.884;8.696;2023-08-24T12:37:22;98368.00;;;40.55;30.92
22743;BME280;11538;48.884;8.696;2023-08-24T12:39:49;98352.53;;;40.27;30.59
22743;BME280;11538;48.884;8.696;2023-08-24T12:42:15;98346.03;;;40.21;30.86
22743;BME280;11538;48.884;8.696;2023-08-24T12:44:43;98334.41;;;39.96;31.38
22743;BME280;11538;48.884;8.696;2023-08-24T12:47:11;98335.56;;;39.49;31.67
22743;BME280;11538;48.884;8.696;2023-08-24T12:49:38;98331.91;;;38.45;32.84
22743;BME280;11538;48.884;8.696;2023-08-24T12:52:04;98320.59;;;38.18;33.59
22743;BME280;11538;48.884;8.696;2023-08-24T12:54:31;98321.84;;;38.44;33.33
22743;BME280;11538;48.884;8.696;2023-08-24T12:56:58;98313.22;;;38.65;33.07
22743;BME280;11538;48.884;8.696;2023-08-24T12:59:25;98321.16;;;38.98;32.36
22743;BME280;11538;48.884;8.696;2023-08-24T13:01:52;98320.34;;;39.53;32.15
22743;BME280;11538;48.884;8.696;2023-08-24T13:04:19;98320.13;;;39.62;31.84
22743;BME280;11538;48.884;8.696;2023-08-24T13:06:46;98320.59;;;39.43;31.56
22743;BME280;11538;48.884;8.696;2023-08-24T13:09:13;98318.84;;;39.69;31.39
22743;BME280;11538;48.884;8.696;2023-08-24T13:11:40;98305.91;;;39.51;31.52
22743;BME280;11538;48.884;8.696;2023-08-24T13:14:07;98309.25;;;39.55;31.14
22743;BME280;11538;48.884;8.696;2023-08-24T13:16:34;98297.97;;;39.77;31.22
22743;BME280;11538;48.884;8.696;2023-08-24T13:19:01;98299.06;;;40.09;29.52